createdAt,value
2023-03-12T00:00:33.959Z,3284.31421
2023-03-12T00:15:35.929Z,3366.83466
2023-03-12T00:30:39.293Z,3362.61027
2023-03-12T00:45:41.215Z,3294.40737
2023-03-12T01:00:43.215Z,3304.56276
2023-03-12T01:15:45.182Z,3304.56276
2023-03-12T01:30:47.146Z,3316.83217
2023-03-12T01:45:49.089Z,3250.45531
2023-03-12T02:00:51.077Z,3123.54361
2023-03-12T02:15:53.099Z,2891.04692
2023-03-12T02:30:55.057Z,2656.09566
2023-03-12T02:45:57.059Z,2640.39461
2023-03-12T03:00:59.092Z,2514.07181
2023-03-12T03:16:00.982Z,2564.59382
2023-03-12T03:31:02.954Z,2495.34502
2023-03-12T03:46:06.569Z,2429.73759
2023-03-12T04:01:08.572Z,2528.3024
2023-03-12T04:16:10.531Z,2571.97748
2023-03-12T04:31:12.560Z,2601.94227
2023-03-12T04:46:14.649Z,2650.84127
2023-03-12T05:01:16.637Z,2680.00052
2023-03-12T05:16:18.586Z,2709.80841
2023-03-12T05:31:20.666Z,2754.36846
2023-03-12T05:46:22.687Z,2777.2026
2023-03-12T06:01:24.636Z,2800.4185
2023-03-12T06:16:26.746Z,2854.10063
2023-03-12T06:31:28.777Z,2860.19263
2023-03-12T06:46:30.809Z,2922.57414
2023-03-12T07:01:32.883Z,2938.59702
2023-03-12T07:16:35.003Z,2961.3265
2023-03-12T07:31:36.948Z,2954.79656
2023-03-12T07:46:39.010Z,2945.05548
2023-03-12T08:01:41.060Z,2958.05793
2023-03-12T08:16:43.182Z,2994.41394
2023-03-12T08:32:01.499Z,2967.88536
2023-03-12T08:47:05.915Z,3026.53916
2023-03-12T09:02:07.811Z,3012.92909
2023-03-12T09:17:09.774Z,3033.39041
2023-03-12T09:32:11.706Z,3061.10842
2023-03-12T09:47:13.769Z,3078.69089
2023-03-12T10:02:15.711Z,3087.55809
2023-03-12T10:17:17.588Z,3096.47651
2023-03-12T10:32:19.500Z,3073.39498
2023-03-12T10:47:21.421Z,3101.85234
2023-03-12T11:02:23.246Z,3110.85365
2023-03-12T11:17:25.068Z,3082.23165
2023-03-12T11:32:26.915Z,3078.69089
2023-03-12T11:47:28.855Z,3078.69089
2023-03-12T12:02:30.761Z,3069.87448
2023-03-12T12:17:32.779Z,3028.24907
2023-03-12T12:32:34.694Z,2991.07196
2023-03-12T12:47:36.564Z,2971.1757
2023-03-12T13:02:38.435Z,2948.29536
2023-03-12T13:17:40.460Z,2948.29536
2023-03-12T13:32:42.486Z,2961.3265
2023-03-12T13:47:44.617Z,3006.16986
2023-03-12T14:02:46.567Z,3014.62366
2023-03-12T14:17:48.480Z,3038.54924
2023-03-12T14:32:50.421Z,3052.39228
2023-03-12T14:47:52.473Z,3084.00509
2023-03-12T15:02:54.432Z,2664.01642
2023-03-12T15:17:56.342Z,2601.94227
2023-03-12T15:32:58.390Z,2535.47828
2023-03-12T15:48:00.475Z,2500.00051
2023-03-12T16:03:02.364Z,2528.3024
2023-03-12T16:18:05.224Z,2574.44816
2023-03-12T16:33:09.132Z,2619.74636
2023-03-12T16:48:11.513Z,2690.76357
2023-03-12T17:03:13.402Z,2740.28682
2023-03-12T17:18:15.533Z,2785.86331
2023-03-12T17:33:17.492Z,2794.57821
2023-03-12T17:48:19.437Z,2718.05326
2023-03-12T18:03:21.464Z,2800.4185
2023-03-12T18:18:23.482Z,2803.34781
2023-03-12T18:33:25.377Z,2869.37954
2023-03-12T18:48:27.355Z,2881.72096
2023-03-12T19:03:29.249Z,2863.24839
2023-03-12T19:18:31.164Z,2891.04692
2023-03-12T19:33:33.327Z,2884.82292
2023-03-12T19:48:35.347Z,2891.04692
2023-03-12T20:03:37.318Z,2887.93156
2023-03-12T20:18:39.275Z,2913.04401
2023-03-12T20:33:41.176Z,2872.45498
2023-03-12T20:48:43.092Z,2815.12658
2023-03-12T21:03:45.038Z,2827.00475
2023-03-12T21:18:46.954Z,2860.19263
2023-03-12T21:33:49.153Z,2863.24839
2023-03-12T21:48:51.288Z,2884.82292
2023-03-12T22:03:53.376Z,2866.31069
2023-03-12T22:18:55.322Z,2875.53701
2023-03-12T22:33:57.343Z,2785.86331
2023-03-12T22:48:59.294Z,2729.12476
2023-03-12T23:04:01.256Z,2677.3232
2023-03-12T23:19:03.358Z,2637.79579
2023-03-12T23:34:05.346Z,2599.41856
2023-03-12T23:49:07.405Z,2589.3725
